RJOR(METAR)
07/23 21:00
METAR RJOR 231200Z 27004KT 9999 FEW020 SCT030 BKN/// 26/24 Q1005 RMK
1CU020 3CU030 A2970=
戻る
トップページへ戻る
IMOC Co,.Ltd.